sensor_id;sensor_type;location;lat;lon;timestamp;P1;durP1;ratioP1;P2;durP2;ratioP2
79261;SDS011;68699;48.220;16.358;2023-07-31T00:00:38;1.80;;;1.40;;
79261;SDS011;68699;48.220;16.358;2023-07-31T00:03:04;1.43;;;1.33;;
79261;SDS011;68699;48.220;16.358;2023-07-31T00:05:30;1.37;;;1.23;;
79261;SDS011;68699;48.220;16.358;2023-07-31T00:07:56;1.87;;;1.60;;
79261;SDS011;68699;48.220;16.358;2023-07-31T00:10:22;1.43;;;1.33;;
79261;SDS011;68699;48.220;16.358;2023-07-31T00:12:48;1.47;;;1.20;;
79261;SDS011;68699;48.220;16.358;2023-07-31T00:15:14;1.67;;;1.40;;
79261;SDS011;68699;48.220;16.358;2023-07-31T00:17:40;1.60;;;1.50;;
79261;SDS011;68699;48.220;16.358;2023-07-31T00:20:06;1.80;;;1.70;;
79261;SDS011;68699;48.220;16.358;2023-07-31T00:22:32;1.60;;;1.50;;
79261;SDS011;68699;48.220;16.358;2023-07-31T00:24:58;1.67;;;1.57;;
79261;SDS011;68699;48.220;16.358;2023-07-31T00:27:25;1.50;;;1.30;;
79261;SDS011;68699;48.220;16.358;2023-07-31T00:29:51;3.37;;;1.63;;
79261;SDS011;68699;48.220;16.358;2023-07-31T00:32:17;1.77;;;1.60;;
79261;SDS011;68699;48.220;16.358;2023-07-31T00:34:43;1.73;;;1.40;;
79261;SDS011;68699;48.220;16.358;2023-07-31T00:37:10;1.77;;;1.40;;
79261;SDS011;68699;48.220;16.358;2023-07-31T00:39:36;1.43;;;1.33;;
79261;SDS011;68699;48.220;16.358;2023-07-31T00:42:02;1.20;;;1.20;;
79261;SDS011;68699;48.220;16.358;2023-07-31T00:44:28;2.13;;;1.47;;
79261;SDS011;68699;48.220;16.358;2023-07-31T00:46:54;1.50;;;1.40;;
79261;SDS011;68699;48.220;16.358;2023-07-31T00:49:23;1.50;;;1.40;;
79261;SDS011;68699;48.220;16.358;2023-07-31T00:51:49;2.43;;;1.50;;
79261;SDS011;68699;48.220;16.358;2023-07-31T00:54:15;1.60;;;1.50;;
79261;SDS011;68699;48.220;16.358;2023-07-31T00:56:41;1.60;;;1.50;;
79261;SDS011;68699;48.220;16.358;2023-07-31T00:59:07;1.37;;;1.30;;
79261;SDS011;68699;48.220;16.358;2023-07-31T01:01:33;1.50;;;1.40;;
79261;SDS011;68699;48.220;16.358;2023-07-31T01:03:59;2.13;;;1.47;;
79261;SDS011;68699;48.220;16.358;2023-07-31T01:06:29;1.50;;;1.40;;
79261;SDS011;68699;48.220;16.358;2023-07-31T01:09:08;2.60;;;1.43;;
79261;SDS011;68699;48.220;16.358;2023-07-31T01:11:46;1.47;;;1.37;;
79261;SDS011;68699;48.220;16.358;2023-07-31T01:14:13;2.77;;;1.60;;
79261;SDS011;68699;48.220;16.358;2023-07-31T01:16:39;1.73;;;1.63;;
79261;SDS011;68699;48.220;16.358;2023-07-31T01:19:06;1.50;;;1.40;;
79261;SDS011;68699;48.220;16.358;2023-07-31T01:26:33;1.40;;;1.30;;
79261;SDS011;68699;48.220;16.358;2023-07-31T01:31:29;1.70;;;1.60;;
79261;SDS011;68699;48.220;16.358;2023-07-31T01:33:56;2.53;;;1.33;;
79261;SDS011;68699;48.220;16.358;2023-07-31T01:36:23;1.47;;;1.20;;
79261;SDS011;68699;48.220;16.358;2023-07-31T01:38:49;1.40;;;1.30;;
79261;SDS011;68699;48.220;16.358;2023-07-31T01:41:18;1.50;;;1.40;;
79261;SDS011;68699;48.220;16.358;2023-07-31T01:43:47;2.00;;;1.53;;
79261;SDS011;68699;48.220;16.358;2023-07-31T01:46:14;1.47;;;1.37;;
79261;SDS011;68699;48.220;16.358;2023-07-31T01:48:40;1.70;;;1.60;;
79261;SDS011;68699;48.220;16.358;2023-07-31T01:51:09;1.50;;;1.40;;
79261;SDS011;68699;48.220;16.358;2023-07-31T01:53:35;2.33;;;1.50;;
79261;SDS011;68699;48.220;16.358;2023-07-31T01:56:01;2.13;;;1.50;;
79261;SDS011;68699;48.220;16.358;2023-07-31T01:58:26;1.50;;;1.40;;
79261;SDS011;68699;48.220;16.358;2023-07-31T02:00:52;1.90;;;1.57;;
79261;SDS011;68699;48.220;16.358;2023-07-31T02:03:18;1.53;;;1.43;;
79261;SDS011;68699;48.220;16.358;2023-07-31T02:05:45;1.77;;;1.67;;
79261;SDS011;68699;48.220;16.358;2023-07-31T02:08:11;1.63;;;1.53;;
79261;SDS011;68699;48.220;16.358;2023-07-31T02:10:37;1.70;;;1.60;;
79261;SDS011;68699;48.220;16.358;2023-07-31T02:13:03;1.87;;;1.43;;
79261;SDS011;68699;48.220;16.358;2023-07-31T02:15:29;1.70;;;1.60;;
79261;SDS011;68699;48.220;16.358;2023-07-31T02:17:56;2.13;;;1.37;;
79261;SDS011;68699;48.220;16.358;2023-07-31T02:20:22;1.60;;;1.47;;
79261;SDS011;68699;48.220;16.358;2023-07-31T02:22:48;2.33;;;1.60;;
79261;SDS011;68699;48.220;16.358;2023-07-31T02:25:14;1.67;;;1.57;;
79261;SDS011;68699;48.220;16.358;2023-07-31T02:27:40;1.70;;;1.60;;
79261;SDS011;68699;48.220;16.358;2023-07-31T02:30:06;1.57;;;1.47;;
79261;SDS011;68699;48.220;16.358;2023-07-31T02:32:32;1.60;;;1.50;;
79261;SDS011;68699;48.220;16.358;2023-07-31T02:34:58;1.70;;;1.60;;
79261;SDS011;68699;48.220;16.358;2023-07-31T02:37:24;1.97;;;1.40;;
79261;SDS011;68699;48.220;16.358;2023-07-31T02:39:51;1.77;;;1.50;;
79261;SDS011;68699;48.220;16.358;2023-07-31T02:42:17;1.63;;;1.30;;
79261;SDS011;68699;48.220;16.358;2023-07-31T02:44:43;2.03;;;1.60;;
79261;SDS011;68699;48.220;16.358;2023-07-31T02:47:09;1.50;;;1.40;;
79261;SDS011;68699;48.220;16.358;2023-07-31T02:49:35;1.50;;;1.40;;
79261;SDS011;68699;48.220;16.358;2023-07-31T02:52:01;1.97;;;1.60;;
79261;SDS011;68699;48.220;16.358;2023-07-31T02:54:27;1.80;;;1.67;;
79261;SDS011;68699;48.220;16.358;2023-07-31T02:56:53;1.83;;;1.67;;
79261;SDS011;68699;48.220;16.358;2023-07-31T02:59:19;1.87;;;1.70;;
79261;SDS011;68699;48.220;16.358;2023-07-31T03:01:45;1.90;;;1.70;;
79261;SDS011;68699;48.220;16.358;2023-07-31T03:04:11;2.23;;;1.93;;
79261;SDS011;68699;48.220;16.358;2023-07-31T03:06:37;1.90;;;1.73;;
79261;SDS011;68699;48.220;16.358;2023-07-31T03:09:03;1.70;;;1.60;;
79261;SDS011;68699;48.220;16.358;2023-07-31T03:11:29;2.77;;;1.90;;
79261;SDS011;68699;48.220;16.358;2023-07-31T03:13:55;1.60;;;1.50;;
79261;SDS011;68699;48.220;16.358;2023-07-31T03:16:21;1.97;;;1.77;;
79261;SDS011;68699;48.220;16.358;2023-07-31T03:18:47;1.80;;;1.70;;
79261;SDS011;68699;48.220;16.358;2023-07-31T03:21:14;1.70;;;1.60;;
79261;SDS011;68699;48.220;16.358;2023-07-31T03:23:40;2.33;;;1.70;;
79261;SDS011;68699;48.220;16.358;2023-07-31T03:26:06;1.83;;;1.40;;
79261;SDS011;68699;48.220;16.358;2023-07-31T03:28:32;2.23;;;1.67;;
79261;SDS011;68699;48.220;16.358;2023-07-31T03:30:58;2.87;;;1.63;;
79261;SDS011;68699;48.220;16.358;2023-07-31T03:33:25;1.70;;;1.60;;
79261;SDS011;68699;48.220;16.358;2023-07-31T03:35:51;2.27;;;1.50;;
79261;SDS011;68699;48.220;16.358;2023-07-31T03:38:17;1.67;;;1.57;;
79261;SDS011;68699;48.220;16.358;2023-07-31T03:40:43;1.93;;;1.80;;
79261;SDS011;68699;48.220;16.358;2023-07-31T03:43:09;1.90;;;1.63;;
79261;SDS011;68699;48.220;16.358;2023-07-31T03:45:35;2.30;;;1.80;;
79261;SDS011;68699;48.220;16.358;2023-07-31T03:48:01;1.93;;;1.73;;
79261;SDS011;68699;48.220;16.358;2023-07-31T03:50:27;1.83;;;1.73;;
79261;SDS011;68699;48.220;16.358;2023-07-31T03:52:53;1.63;;;1.53;;
79261;SDS011;68699;48.220;16.358;2023-07-31T03:55:19;1.70;;;1.60;;
79261;SDS011;68699;48.220;16.358;2023-07-31T03:57:46;2.10;;;1.87;;
79261;SDS011;68699;48.220;16.358;2023-07-31T04:00:12;2.67;;;1.80;;
79261;SDS011;68699;48.220;16.358;2023-07-31T04:02:38;1.77;;;1.47;;
79261;SDS011;68699;48.220;16.358;2023-07-31T04:05:05;2.07;;;1.97;;
79261;SDS011;68699;48.220;16.358;2023-07-31T04:07:31;2.10;;;2.00;;
79261;SDS011;68699;48.220;16.358;2023-07-31T04:09:57;1.67;;;1.57;;
79261;SDS011;68699;48.220;16.358;2023-07-31T04:12:23;1.90;;;1.70;;
79261;SDS011;68699;48.220;16.358;2023-07-31T04:14:49;2.50;;;1.90;;
79261;SDS011;68699;48.220;16.358;2023-07-31T04:17:15;3.80;;;2.00;;
79261;SDS011;68699;48.220;16.358;2023-07-31T04:19:41;2.30;;;2.10;;
79261;SDS011;68699;48.220;16.358;2023-07-31T04:22:07;2.00;;;1.90;;
79261;SDS011;68699;48.220;16.358;2023-07-31T04:24:33;2.00;;;1.90;;
79261;SDS011;68699;48.220;16.358;2023-07-31T04:26:59;2.30;;;2.10;;
79261;SDS011;68699;48.220;16.358;2023-07-31T04:29:25;2.43;;;2.10;;
79261;SDS011;68699;48.220;16.358;2023-07-31T04:31:51;2.40;;;2.20;;
79261;SDS011;68699;48.220;16.358;2023-07-31T04:34:17;3.17;;;2.30;;
79261;SDS011;68699;48.220;16.358;2023-07-31T04:36:43;2.17;;;2.07;;
79261;SDS011;68699;48.220;16.358;2023-07-31T04:39:09;2.33;;;2.20;;
79261;SDS011;68699;48.220;16.358;2023-07-31T04:41:35;2.70;;;2.50;;
79261;SDS011;68699;48.220;16.358;2023-07-31T04:44:01;2.70;;;2.50;;
79261;SDS011;68699;48.220;16.358;2023-07-31T04:46:28;2.70;;;2.43;;
79261;SDS011;68699;48.220;16.358;2023-07-31T04:48:54;2.43;;;2.20;;
79261;SDS011;68699;48.220;16.358;2023-07-31T04:51:20;2.33;;;2.17;;
79261;SDS011;68699;48.220;16.358;2023-07-31T04:53:46;2.50;;;2.10;;
79261;SDS011;68699;48.220;16.358;2023-07-31T04:56:12;2.13;;;1.93;;
79261;SDS011;68699;48.220;16.358;2023-07-31T04:58:40;3.40;;;2.10;;
79261;SDS011;68699;48.220;16.358;2023-07-31T05:01:06;2.60;;;2.40;;
79261;SDS011;68699;48.220;16.358;2023-07-31T05:03:32;2.57;;;2.37;;
79261;SDS011;68699;48.220;16.358;2023-07-31T05:05:58;3.10;;;2.07;;
79261;SDS011;68699;48.220;16.358;2023-07-31T05:08:24;3.73;;;2.30;;
79261;SDS011;68699;48.220;16.358;2023-07-31T05:10:50;2.33;;;2.13;;
79261;SDS011;68699;48.220;16.358;2023-07-31T05:13:16;2.23;;;1.90;;
79261;SDS011;68699;48.220;16.358;2023-07-31T05:15:42;3.13;;;2.60;;
79261;SDS011;68699;48.220;16.358;2023-07-31T05:18:08;2.27;;;2.07;;
79261;SDS011;68699;48.220;16.358;2023-07-31T05:20:34;2.50;;;2.27;;
79261;SDS011;68699;48.220;16.358;2023-07-31T05:23:00;2.43;;;1.80;;
79261;SDS011;68699;48.220;16.358;2023-07-31T05:25:26;2.87;;;1.90;;
79261;SDS011;68699;48.220;16.358;2023-07-31T05:27:52;1.90;;;1.80;;
79261;SDS011;68699;48.220;16.358;2023-07-31T05:30:18;2.47;;;2.27;;
79261;SDS011;68699;48.220;16.358;2023-07-31T05:32:44;1.93;;;1.83;;
79261;SDS011;68699;48.220;16.358;2023-07-31T05:35:11;2.80;;;2.13;;
79261;SDS011;68699;48.220;16.358;2023-07-31T05:37:37;2.40;;;2.20;;
79261;SDS011;68699;48.220;16.358;2023-07-31T05:40:03;2.53;;;2.33;;
79261;SDS011;68699;48.220;16.358;2023-07-31T05:42:29;2.20;;;2.10;;
79261;SDS011;68699;48.220;16.358;2023-07-31T05:44:55;1.97;;;1.87;;
79261;SDS011;68699;48.220;16.358;2023-07-31T05:47:21;3.20;;;1.97;;
79261;SDS011;68699;48.220;16.358;2023-07-31T05:49:48;1.90;;;1.80;;
79261;SDS011;68699;48.220;16.358;2023-07-31T05:52:14;2.10;;;2.00;;
79261;SDS011;68699;48.220;16.358;2023-07-31T05:54:41;2.73;;;2.00;;
79261;SDS011;68699;48.220;16.358;2023-07-31T05:57:07;2.47;;;2.20;;
79261;SDS011;68699;48.220;16.358;2023-07-31T05:59:33;2.70;;;1.93;;
79261;SDS011;68699;48.220;16.358;2023-07-31T06:01:59;2.07;;;1.77;;
79261;SDS011;68699;48.220;16.358;2023-07-31T06:04:25;1.70;;;1.60;;
79261;SDS011;68699;48.220;16.358;2023-07-31T06:06:51;1.97;;;1.80;;
79261;SDS011;68699;48.220;16.358;2023-07-31T06:09:17;2.43;;;1.80;;
79261;SDS011;68699;48.220;16.358;2023-07-31T06:11:45;2.03;;;1.83;;
79261;SDS011;68699;48.220;16.358;2023-07-31T06:14:11;2.43;;;1.80;;
79261;SDS011;68699;48.220;16.358;2023-07-31T06:16:37;2.07;;;1.80;;
79261;SDS011;68699;48.220;16.358;2023-07-31T06:19:03;2.10;;;1.90;;
79261;SDS011;68699;48.220;16.358;2023-07-31T06:21:29;2.03;;;1.90;;
79261;SDS011;68699;48.220;16.358;2023-07-31T06:23:56;2.20;;;1.70;;
79261;SDS011;68699;48.220;16.358;2023-07-31T06:26:22;1.77;;;1.67;;
79261;SDS011;68699;48.220;16.358;2023-07-31T06:28:48;1.80;;;1.70;;
79261;SDS011;68699;48.220;16.358;2023-07-31T06:31:14;2.90;;;1.73;;
79261;SDS011;68699;48.220;16.358;2023-07-31T06:33:40;2.23;;;1.70;;
79261;SDS011;68699;48.220;16.358;2023-07-31T06:36:06;2.67;;;1.70;;
79261;SDS011;68699;48.220;16.358;2023-07-31T06:38:32;2.00;;;1.90;;
79261;SDS011;68699;48.220;16.358;2023-07-31T06:40:58;4.50;;;2.10;;
79261;SDS011;68699;48.220;16.358;2023-07-31T06:43:24;2.83;;;2.10;;
79261;SDS011;68699;48.220;16.358;2023-07-31T06:45:50;2.60;;;1.73;;
79261;SDS011;68699;48.220;16.358;2023-07-31T06:48:16;2.00;;;1.80;;
79261;SDS011;68699;48.220;16.358;2023-07-31T06:50:42;2.73;;;1.80;;
79261;SDS011;68699;48.220;16.358;2023-07-31T06:53:08;2.70;;;1.70;;
79261;SDS011;68699;48.220;16.358;2023-07-31T06:55:34;2.17;;;1.83;;
79261;SDS011;68699;48.220;16.358;2023-07-31T06:58:00;1.80;;;1.70;;
79261;SDS011;68699;48.220;16.358;2023-07-31T07:00:27;1.67;;;1.50;;
79261;SDS011;68699;48.220;16.358;2023-07-31T07:02:53;1.60;;;1.50;;
79261;SDS011;68699;48.220;16.358;2023-07-31T07:05:19;2.87;;;1.70;;
79261;SDS011;68699;48.220;16.358;2023-07-31T07:07:46;1.60;;;1.50;;
79261;SDS011;68699;48.220;16.358;2023-07-31T07:10:12;1.43;;;1.33;;
79261;SDS011;68699;48.220;16.358;2023-07-31T07:12:38;3.20;;;1.50;;
79261;SDS011;68699;48.220;16.358;2023-07-31T07:15:04;2.90;;;1.50;;
79261;SDS011;68699;48.220;16.358;2023-07-31T07:17:30;2.90;;;1.60;;
79261;SDS011;68699;48.220;16.358;2023-07-31T07:19:56;3.60;;;1.67;;
79261;SDS011;68699;48.220;16.358;2023-07-31T07:22:23;1.50;;;1.40;;
79261;SDS011;68699;48.220;16.358;2023-07-31T07:24:49;2.00;;;1.50;;
79261;SDS011;68699;48.220;16.358;2023-07-31T07:27:15;3.67;;;1.88;;
79261;SDS011;68699;48.220;16.358;2023-07-31T07:29:41;2.80;;;1.60;;
79261;SDS011;68699;48.220;16.358;2023-07-31T07:32:08;1.98;;;1.30;;
79261;SDS011;68699;48.220;16.358;2023-07-31T07:34:34;1.63;;;1.50;;
79261;SDS011;68699;48.220;16.358;2023-07-31T07:37:00;3.47;;;1.67;;
79261;SDS011;68699;48.220;16.358;2023-07-31T07:39:26;2.15;;;1.40;;
79261;SDS011;68699;48.220;16.358;2023-07-31T07:41:52;1.50;;;1.40;;
79261;SDS011;68699;48.220;16.358;2023-07-31T07:44:19;1.80;;;1.33;;
79261;SDS011;68699;48.220;16.358;2023-07-31T07:46:45;2.20;;;1.45;;
79261;SDS011;68699;48.220;16.358;2023-07-31T07:49:11;2.60;;;1.60;;
79261;SDS011;68699;48.220;16.358;2023-07-31T07:51:37;2.95;;;1.63;;
79261;SDS011;68699;48.220;16.358;2023-07-31T07:54:03;3.50;;;1.60;;
79261;SDS011;68699;48.220;16.358;2023-07-31T07:56:29;3.03;;;1.50;;
79261;SDS011;68699;48.220;16.358;2023-07-31T07:58:56;3.30;;;1.70;;
79261;SDS011;68699;48.220;16.358;2023-07-31T08:01:22;2.72;;;1.80;;
79261;SDS011;68699;48.220;16.358;2023-07-31T08:03:51;2.58;;;1.83;;
79261;SDS011;68699;48.220;16.358;2023-07-31T08:06:17;1.80;;;1.50;;
79261;SDS011;68699;48.220;16.358;2023-07-31T08:08:43;2.20;;;1.30;;
79261;SDS011;68699;48.220;16.358;2023-07-31T08:11:09;1.85;;;1.35;;
79261;SDS011;68699;48.220;16.358;2023-07-31T08:13:36;2.10;;;1.30;;
79261;SDS011;68699;48.220;16.358;2023-07-31T08:16:03;1.98;;;1.50;;
79261;SDS011;68699;48.220;16.358;2023-07-31T08:18:30;1.85;;;1.25;;
79261;SDS011;68699;48.220;16.358;2023-07-31T08:20:57;1.48;;;1.35;;
79261;SDS011;68699;48.220;16.358;2023-07-31T08:23:23;2.20;;;1.50;;
79261;SDS011;68699;48.220;16.358;2023-07-31T08:25:49;1.70;;;1.60;;
79261;SDS011;68699;48.220;16.358;2023-07-31T08:28:16;3.53;;;1.98;;
79261;SDS011;68699;48.220;16.358;2023-07-31T08:30:42;2.33;;;1.60;;
79261;SDS011;68699;48.220;16.358;2023-07-31T08:33:08;1.77;;;1.63;;
79261;SDS011;68699;48.220;16.358;2023-07-31T08:35:34;3.53;;;1.83;;
79261;SDS011;68699;48.220;16.358;2023-07-31T08:38:01;2.10;;;1.73;;
79261;SDS011;68699;48.220;16.358;2023-07-31T08:40:27;3.20;;;2.00;;
79261;SDS011;68699;48.220;16.358;2023-07-31T08:42:54;1.38;;;1.27;;
79261;SDS011;68699;48.220;16.358;2023-07-31T08:45:27;2.47;;;1.30;;
79261;SDS011;68699;48.220;16.358;2023-07-31T08:47:53;1.85;;;1.40;;
79261;SDS011;68699;48.220;16.358;2023-07-31T08:50:22;1.95;;;1.60;;
79261;SDS011;68699;48.220;16.358;2023-07-31T08:52:49;5.20;;;1.70;;
79261;SDS011;68699;48.220;16.358;2023-07-31T08:55:16;1.50;;;1.40;;
79261;SDS011;68699;48.220;16.358;2023-07-31T08:57:43;3.13;;;1.58;;
79261;SDS011;68699;48.220;16.358;2023-07-31T09:00:10;2.15;;;1.52;;
79261;SDS011;68699;48.220;16.358;2023-07-31T09:05:03;2.08;;;1.42;;
79261;SDS011;68699;48.220;16.358;2023-07-31T09:07:30;2.55;;;1.77;;
79261;SDS011;68699;48.220;16.358;2023-07-31T09:09:57;1.83;;;1.40;;
79261;SDS011;68699;48.220;16.358;2023-07-31T09:12:25;3.63;;;1.70;;
79261;SDS011;68699;48.220;16.358;2023-07-31T09:14:51;3.03;;;1.55;;
79261;SDS011;68699;48.220;16.358;2023-07-31T09:17:28;3.75;;;1.80;;
79261;SDS011;68699;48.220;16.358;2023-07-31T09:19:55;2.10;;;1.33;;
79261;SDS011;68699;48.220;16.358;2023-07-31T09:22:34;3.67;;;1.90;;
79261;SDS011;68699;48.220;16.358;2023-07-31T09:25:20;2.72;;;1.70;;
79261;SDS011;68699;48.220;16.358;2023-07-31T09:27:59;4.22;;;1.58;;
79261;SDS011;68699;48.220;16.358;2023-07-31T09:30:26;1.57;;;1.47;;
79261;SDS011;68699;48.220;16.358;2023-07-31T09:32:59;5.50;;;1.85;;
79261;SDS011;68699;48.220;16.358;2023-07-31T09:35:30;2.20;;;1.77;;
79261;SDS011;68699;48.220;16.358;2023-07-31T09:38:09;2.03;;;1.58;;
79261;SDS011;68699;48.220;16.358;2023-07-31T09:40:36;2.30;;;1.60;;
79261;SDS011;68699;48.220;16.358;2023-07-31T09:43:03;2.27;;;1.60;;
79261;SDS011;68699;48.220;16.358;2023-07-31T09:45:33;1.90;;;1.70;;
79261;SDS011;68699;48.220;16.358;2023-07-31T09:47:59;2.43;;;1.50;;
79261;SDS011;68699;48.220;16.358;2023-07-31T09:50:25;2.93;;;1.50;;
79261;SDS011;68699;48.220;16.358;2023-07-31T09:52:51;2.93;;;1.53;;
79261;SDS011;68699;48.220;16.358;2023-07-31T09:55:18;1.80;;;1.60;;
79261;SDS011;68699;48.220;16.358;2023-07-31T09:57:45;2.07;;;1.60;;
79261;SDS011;68699;48.220;16.358;2023-07-31T10:00:12;1.83;;;1.67;;
79261;SDS011;68699;48.220;16.358;2023-07-31T10:02:39;2.40;;;1.60;;
79261;SDS011;68699;48.220;16.358;2023-07-31T10:05:06;2.13;;;1.50;;
79261;SDS011;68699;48.220;16.358;2023-07-31T10:07:36;1.53;;;1.43;;
79261;SDS011;68699;48.220;16.358;2023-07-31T10:10:03;1.73;;;1.60;;
79261;SDS011;68699;48.220;16.358;2023-07-31T10:12:30;1.63;;;1.43;;
79261;SDS011;68699;48.220;16.358;2023-07-31T10:14:58;2.53;;;1.57;;
79261;SDS011;68699;48.220;16.358;2023-07-31T10:17:25;1.53;;;1.40;;
79261;SDS011;68699;48.220;16.358;2023-07-31T10:19:52;1.77;;;1.50;;
79261;SDS011;68699;48.220;16.358;2023-07-31T10:22:19;2.27;;;1.60;;
79261;SDS011;68699;48.220;16.358;2023-07-31T10:24:45;1.70;;;1.40;;
79261;SDS011;68699;48.220;16.358;2023-07-31T10:27:12;2.57;;;1.30;;
79261;SDS011;68699;48.220;16.358;2023-07-31T10:29:38;3.10;;;1.43;;
79261;SDS011;68699;48.220;16.358;2023-07-31T10:32:06;2.20;;;1.53;;
79261;SDS011;68699;48.220;16.358;2023-07-31T10:34:35;3.77;;;1.60;;
79261;SDS011;68699;48.220;16.358;2023-07-31T10:40:06;2.37;;;1.47;;
79261;SDS011;68699;48.220;16.358;2023-07-31T10:42:33;2.47;;;1.30;;
79261;SDS011;68699;48.220;16.358;2023-07-31T10:45:01;1.73;;;1.53;;
79261;SDS011;68699;48.220;16.358;2023-07-31T10:47:27;1.50;;;1.40;;
79261;SDS011;68699;48.220;16.358;2023-07-31T10:50:10;1.60;;;1.30;;
79261;SDS011;68699;48.220;16.358;2023-07-31T10:52:37;1.73;;;1.60;;
79261;SDS011;68699;48.220;16.358;2023-07-31T10:57:48;2.33;;;1.53;;
79261;SDS011;68699;48.220;16.358;2023-07-31T11:00:18;2.57;;;1.47;;
79261;SDS011;68699;48.220;16.358;2023-07-31T11:03:06;1.92;;;1.38;;
79261;SDS011;68699;48.220;16.358;2023-07-31T11:08:19;1.67;;;1.57;;
79261;SDS011;68699;48.220;16.358;2023-07-31T11:10:46;2.03;;;1.70;;
79261;SDS011;68699;48.220;16.358;2023-07-31T11:13:13;1.95;;;1.60;;
79261;SDS011;68699;48.220;16.358;2023-07-31T11:15:39;2.63;;;1.63;;
79261;SDS011;68699;48.220;16.358;2023-07-31T11:18:05;1.70;;;1.55;;
79261;SDS011;68699;48.220;16.358;2023-07-31T11:20:34;1.53;;;1.40;;
79261;SDS011;68699;48.220;16.358;2023-07-31T11:23:04;1.73;;;1.33;;
79261;SDS011;68699;48.220;16.358;2023-07-31T11:25:32;2.65;;;1.50;;
79261;SDS011;68699;48.220;16.358;2023-07-31T11:28:32;2.42;;;1.27;;
79261;SDS011;68699;48.220;16.358;2023-07-31T11:30:51;2.03;;;1.50;;
79261;SDS011;68699;48.220;16.358;2023-07-31T11:33:17;1.90;;;1.50;;
79261;SDS011;68699;48.220;16.358;2023-07-31T11:35:44;1.42;;;1.33;;
79261;SDS011;68699;48.220;16.358;2023-07-31T11:38:11;6.15;;;1.75;;
79261;SDS011;68699;48.220;16.358;2023-07-31T11:40:44;1.50;;;1.40;;
79261;SDS011;68699;48.220;16.358;2023-07-31T11:43:10;2.45;;;1.92;;
79261;SDS011;68699;48.220;16.358;2023-07-31T11:45:41;2.30;;;1.50;;
79261;SDS011;68699;48.220;16.358;2023-07-31T11:48:07;1.42;;;1.30;;
79261;SDS011;68699;48.220;16.358;2023-07-31T11:50:33;2.28;;;1.48;;
79261;SDS011;68699;48.220;16.358;2023-07-31T11:53:03;1.88;;;1.40;;
79261;SDS011;68699;48.220;16.358;2023-07-31T11:55:33;3.70;;;1.60;;
79261;SDS011;68699;48.220;16.358;2023-07-31T11:57:59;2.63;;;1.60;;
79261;SDS011;68699;48.220;16.358;2023-07-31T12:00:26;1.67;;;1.45;;
79261;SDS011;68699;48.220;16.358;2023-07-31T12:02:52;1.75;;;1.50;;
79261;SDS011;68699;48.220;16.358;2023-07-31T12:05:19;1.50;;;1.40;;
79261;SDS011;68699;48.220;16.358;2023-07-31T12:07:46;1.42;;;1.30;;
79261;SDS011;68699;48.220;16.358;2023-07-31T12:10:22;2.83;;;1.50;;
79261;SDS011;68699;48.220;16.358;2023-07-31T12:13:10;1.50;;;1.40;;
79261;SDS011;68699;48.220;16.358;2023-07-31T12:18:05;2.60;;;1.75;;
79261;SDS011;68699;48.220;16.358;2023-07-31T12:20:32;2.47;;;1.50;;
79261;SDS011;68699;48.220;16.358;2023-07-31T12:22:59;2.92;;;1.50;;
79261;SDS011;68699;48.220;16.358;2023-07-31T12:25:31;2.33;;;1.30;;
79261;SDS011;68699;48.220;16.358;2023-07-31T12:27:57;2.30;;;1.50;;
79261;SDS011;68699;48.220;16.358;2023-07-31T12:30:27;2.10;;;1.45;;
79261;SDS011;68699;48.220;16.358;2023-07-31T12:32:54;2.20;;;1.75;;
79261;SDS011;68699;48.220;16.358;2023-07-31T12:35:20;2.67;;;1.60;;
79261;SDS011;68699;48.220;16.358;2023-07-31T12:37:46;2.65;;;1.60;;
79261;SDS011;68699;48.220;16.358;2023-07-31T12:40:13;2.20;;;1.50;;
79261;SDS011;68699;48.220;16.358;2023-07-31T12:42:39;1.73;;;1.45;;
79261;SDS011;68699;48.220;16.358;2023-07-31T12:45:06;1.92;;;1.70;;
79261;SDS011;68699;48.220;16.358;2023-07-31T12:47:33;1.58;;;1.35;;
79261;SDS011;68699;48.220;16.358;2023-07-31T12:49:59;1.52;;;1.42;;
79261;SDS011;68699;48.220;16.358;2023-07-31T12:52:25;2.38;;;1.48;;
79261;SDS011;68699;48.220;16.358;2023-07-31T12:54:51;2.78;;;1.60;;
79261;SDS011;68699;48.220;16.358;2023-07-31T12:57:17;1.65;;;1.40;;
79261;SDS011;68699;48.220;16.358;2023-07-31T12:59:45;2.45;;;1.60;;
79261;SDS011;68699;48.220;16.358;2023-07-31T13:02:11;1.75;;;1.65;;
79261;SDS011;68699;48.220;16.358;2023-07-31T13:04:37;2.20;;;1.40;;
79261;SDS011;68699;48.220;16.358;2023-07-31T13:07:03;3.95;;;1.65;;
79261;SDS011;68699;48.220;16.358;2023-07-31T13:09:29;2.40;;;1.55;;
79261;SDS011;68699;48.220;16.358;2023-07-31T13:11:56;3.35;;;1.90;;
79261;SDS011;68699;48.220;16.358;2023-07-31T13:14:22;2.30;;;1.45;;
79261;SDS011;68699;48.220;16.358;2023-07-31T13:16:48;2.80;;;1.83;;
79261;SDS011;68699;48.220;16.358;2023-07-31T13:19:14;2.70;;;1.75;;
79261;SDS011;68699;48.220;16.358;2023-07-31T13:21:41;1.85;;;1.67;;
79261;SDS011;68699;48.220;16.358;2023-07-31T13:24:07;2.22;;;1.52;;
79261;SDS011;68699;48.220;16.358;2023-07-31T13:26:33;2.03;;;1.65;;
79261;SDS011;68699;48.220;16.358;2023-07-31T13:29:00;2.22;;;1.60;;
79261;SDS011;68699;48.220;16.358;2023-07-31T13:31:27;2.17;;;1.67;;
79261;SDS011;68699;48.220;16.358;2023-07-31T13:33:53;1.73;;;1.63;;
79261;SDS011;68699;48.220;16.358;2023-07-31T13:36:19;2.50;;;1.70;;
79261;SDS011;68699;48.220;16.358;2023-07-31T13:38:45;1.85;;;1.40;;
79261;SDS011;68699;48.220;16.358;2023-07-31T13:41:11;1.95;;;1.50;;
79261;SDS011;68699;48.220;16.358;2023-07-31T13:43:38;1.77;;;1.60;;
79261;SDS011;68699;48.220;16.358;2023-07-31T13:46:04;2.92;;;1.60;;
79261;SDS011;68699;48.220;16.358;2023-07-31T13:48:35;2.38;;;1.88;;
79261;SDS011;68699;48.220;16.358;2023-07-31T13:51:01;1.92;;;1.30;;
79261;SDS011;68699;48.220;16.358;2023-07-31T13:53:28;2.15;;;1.60;;
79261;SDS011;68699;48.220;16.358;2023-07-31T13:55:54;3.00;;;1.67;;
79261;SDS011;68699;48.220;16.358;2023-07-31T13:58:20;1.75;;;1.65;;
79261;SDS011;68699;48.220;16.358;2023-07-31T14:00:46;1.40;;;1.30;;
79261;SDS011;68699;48.220;16.358;2023-07-31T14:03:13;1.85;;;1.50;;
79261;SDS011;68699;48.220;16.358;2023-07-31T14:05:39;2.60;;;1.50;;
79261;SDS011;68699;48.220;16.358;2023-07-31T14:08:05;3.05;;;1.60;;
79261;SDS011;68699;48.220;16.358;2023-07-31T14:10:31;1.98;;;1.80;;
79261;SDS011;68699;48.220;16.358;2023-07-31T14:12:58;1.60;;;1.50;;
79261;SDS011;68699;48.220;16.358;2023-07-31T14:15:24;1.60;;;1.50;;
79261;SDS011;68699;48.220;16.358;2023-07-31T14:17:53;1.67;;;1.58;;
79261;SDS011;68699;48.220;16.358;2023-07-31T14:20:19;1.50;;;1.40;;
79261;SDS011;68699;48.220;16.358;2023-07-31T14:22:45;1.60;;;1.50;;
79261;SDS011;68699;48.220;16.358;2023-07-31T14:25:12;1.60;;;1.50;;
79261;SDS011;68699;48.220;16.358;2023-07-31T14:27:38;2.60;;;1.77;;
79261;SDS011;68699;48.220;16.358;2023-07-31T14:30:04;1.83;;;1.67;;
79261;SDS011;68699;48.220;16.358;2023-07-31T14:32:31;1.70;;;1.55;;
79261;SDS011;68699;48.220;16.358;2023-07-31T14:34:57;1.40;;;1.30;;
79261;SDS011;68699;48.220;16.358;2023-07-31T14:37:25;4.07;;;1.80;;
79261;SDS011;68699;48.220;16.358;2023-07-31T14:39:52;1.70;;;1.60;;
79261;SDS011;68699;48.220;16.358;2023-07-31T14:42:18;2.28;;;1.80;;
79261;SDS011;68699;48.220;16.358;2023-07-31T14:44:45;2.10;;;1.70;;
79261;SDS011;68699;48.220;16.358;2023-07-31T14:47:12;1.60;;;1.50;;
79261;SDS011;68699;48.220;16.358;2023-07-31T14:49:38;1.83;;;1.73;;
79261;SDS011;68699;48.220;16.358;2023-07-31T14:52:04;1.58;;;1.48;;